createdAt,value
2022-10-28T00:01:46.085Z,4.22
2022-10-28T00:04:13.443Z,4.25
2022-10-28T00:06:40.892Z,5.35
2022-10-28T00:09:11.330Z,3.83
2022-10-28T00:11:39.761Z,4.55
2022-10-28T00:14:07.762Z,4.20
2022-10-28T00:16:36.833Z,4.43
2022-10-28T00:19:06.479Z,3.58
2022-10-28T00:21:35.139Z,3.47
2022-10-28T00:24:02.601Z,3.10
2022-10-28T00:26:31.038Z,3.30
2022-10-28T00:28:59.870Z,4.20
2022-10-28T00:31:28.762Z,4.18
2022-10-28T00:33:56.467Z,4.00
2022-10-28T00:36:26.553Z,3.78
2022-10-28T00:38:54.370Z,3.33
2022-10-28T00:43:50.133Z,3.95
2022-10-28T00:46:19.636Z,4.38
2022-10-28T00:48:49.659Z,3.80
2022-10-28T00:51:18.185Z,6.50
2022-10-28T00:53:48.806Z,4.13
2022-10-28T00:56:17.195Z,4.32
2022-10-28T00:58:44.787Z,3.72
2022-10-28T01:01:12.270Z,4.95
2022-10-28T01:03:39.705Z,3.75
2022-10-28T01:06:07.835Z,4.00
2022-10-28T01:08:35.238Z,4.10
2022-10-28T01:11:17.501Z,3.92
2022-10-28T01:13:53.368Z,4.20
2022-10-28T01:16:25.327Z,3.58
2022-10-28T01:18:59.754Z,3.42
2022-10-28T01:21:51.107Z,3.63
2022-10-28T01:24:23.476Z,3.75
2022-10-28T01:27:20.961Z,3.20
2022-10-28T01:30:04.738Z,4.15
2022-10-28T01:32:35.993Z,4.85
2022-10-28T01:35:09.276Z,3.95
2022-10-28T01:37:38.808Z,3.95
2022-10-28T01:40:10.210Z,3.60
2022-10-28T01:42:41.031Z,4.38
2022-10-28T01:45:13.033Z,3.85
2022-10-28T01:47:43.331Z,3.55
2022-10-28T01:50:14.016Z,3.17
2022-10-28T01:52:42.164Z,3.05
2022-10-28T01:55:13.569Z,3.40
2022-10-28T01:57:42.095Z,3.08
2022-10-28T02:00:10.095Z,4.40
2022-10-28T02:02:40.646Z,3.35
2022-10-28T02:05:23.027Z,4.10
2022-10-28T02:07:54.111Z,4.47
2022-10-28T02:10:23.977Z,3.78
2022-10-28T02:12:54.276Z,3.65
2022-10-28T02:15:30.288Z,3.88
2022-10-28T02:18:12.873Z,3.47
2022-10-28T02:20:44.381Z,4.68
2022-10-28T02:23:18.187Z,5.18
2022-10-28T02:25:47.417Z,4.07
2022-10-28T02:28:18.960Z,3.72
2022-10-28T02:30:47.949Z,4.03
2022-10-28T02:33:18.416Z,5.20
2022-10-28T02:35:47.241Z,3.38
2022-10-28T02:38:18.103Z,4.28
2022-10-28T02:40:48.314Z,3.30
2022-10-28T02:43:17.953Z,3.38
2022-10-28T02:45:47.909Z,4.57
2022-10-28T02:48:18.008Z,3.97
2022-10-28T02:50:47.171Z,3.90
2022-10-28T02:53:20.160Z,3.67
2022-10-28T02:55:50.039Z,3.35
2022-10-28T02:58:17.544Z,4.05
2022-10-28T03:00:45.101Z,5.05
2022-10-28T03:03:12.571Z,3.78
2022-10-28T03:05:40.063Z,4.50
2022-10-28T03:08:07.640Z,4.10
2022-10-28T03:10:36.341Z,3.08
2022-10-28T03:13:03.696Z,4.07
2022-10-28T03:15:31.046Z,4.40
2022-10-28T03:17:58.393Z,4.00
2022-10-28T03:20:25.830Z,4.20
2022-10-28T03:22:53.419Z,4.47
2022-10-28T03:25:20.935Z,4.13
2022-10-28T03:27:49.638Z,3.63
2022-10-28T03:30:18.369Z,3.75
2022-10-28T03:32:45.729Z,3.97
2022-10-28T03:35:13.074Z,3.53
2022-10-28T03:37:42.024Z,3.42
2022-10-28T03:40:09.696Z,4.03
2022-10-28T03:42:38.933Z,3.95
2022-10-28T03:45:10.530Z,3.72
2022-10-28T03:47:37.899Z,3.60
2022-10-28T03:50:05.414Z,3.42
2022-10-28T03:52:32.753Z,5.63
2022-10-28T03:55:00.088Z,4.43
2022-10-28T03:57:30.615Z,3.88
2022-10-28T03:59:58.021Z,4.00
2022-10-28T04:02:27.536Z,4.07
2022-10-28T04:04:54.898Z,3.60
2022-10-28T04:07:22.253Z,4.72
2022-10-28T04:09:51.320Z,4.47
2022-10-28T04:12:18.952Z,4.40
2022-10-28T04:14:46.322Z,3.95
2022-10-28T04:17:13.667Z,4.15
2022-10-28T04:19:42.375Z,4.07
2022-10-28T04:22:09.792Z,4.28
2022-10-28T04:24:37.182Z,4.22
2022-10-28T04:27:04.615Z,4.28
2022-10-28T04:29:32.368Z,3.78
2022-10-28T04:32:00.319Z,4.55
2022-10-28T04:36:56.235Z,4.00
2022-10-28T04:39:24.062Z,4.20
2022-10-28T04:41:51.462Z,4.03
2022-10-28T04:44:18.821Z,3.97
2022-10-28T04:46:46.168Z,4.22
2022-10-28T04:49:13.495Z,4.53
2022-10-28T04:51:40.883Z,3.78
2022-10-28T04:54:09.722Z,3.70
2022-10-28T04:56:37.087Z,3.72
2022-10-28T04:59:04.465Z,5.25
2022-10-28T05:01:31.970Z,3.95
2022-10-28T05:03:59.396Z,3.83
2022-10-28T05:06:26.769Z,4.03
2022-10-28T05:08:54.249Z,4.20
2022-10-28T05:11:22.993Z,4.40
2022-10-28T05:13:52.927Z,4.50
2022-10-28T05:16:20.477Z,4.63
2022-10-28T05:18:48.165Z,4.35
2022-10-28T05:21:15.517Z,4.70
2022-10-28T05:23:42.901Z,3.85
2022-10-28T05:26:10.292Z,5.75
2022-10-28T05:28:39.001Z,4.13
2022-10-28T05:31:06.351Z,4.97
2022-10-28T05:33:34.047Z,3.83
2022-10-28T05:36:01.549Z,4.47
2022-10-28T05:38:28.943Z,4.60
2022-10-28T05:40:56.301Z,4.45
2022-10-28T05:43:23.632Z,5.15
2022-10-28T05:45:55.541Z,4.80
2022-10-28T05:48:22.916Z,4.28
2022-10-28T05:50:50.428Z,4.40
2022-10-28T05:53:17.811Z,4.60
2022-10-28T05:55:47.686Z,4.63
2022-10-28T05:58:16.402Z,4.57
2022-10-28T06:00:43.782Z,4.57
2022-10-28T06:03:13.073Z,4.13
2022-10-28T06:05:42.338Z,4.00
2022-10-28T06:08:09.856Z,4.60
2022-10-28T06:10:37.212Z,4.72
2022-10-28T06:13:03.060Z,4.68
2022-10-28T06:15:30.739Z,4.20
2022-10-28T06:17:58.139Z,4.60
2022-10-28T06:20:26.808Z,4.88
2022-10-28T06:22:55.464Z,4.95
2022-10-28T06:25:23.976Z,4.20
2022-10-28T06:27:52.655Z,4.43
2022-10-28T06:30:20.544Z,4.32
2022-10-28T06:32:50.865Z,4.40
2022-10-28T06:35:18.457Z,4.93
2022-10-28T06:37:47.182Z,4.40
2022-10-28T06:40:14.587Z,4.68
2022-10-28T06:42:41.948Z,5.50
2022-10-28T06:45:09.468Z,3.88
2022-10-28T06:47:41.389Z,6.20
2022-10-28T06:50:09.555Z,5.13
2022-10-28T06:52:36.930Z,4.45
2022-10-28T06:55:06.093Z,4.75
2022-10-28T06:57:33.436Z,4.07
2022-10-28T07:00:00.867Z,5.82
2022-10-28T07:02:28.383Z,4.93
2022-10-28T07:04:55.837Z,4.80
2022-10-28T07:07:23.197Z,5.00
2022-10-28T07:09:50.527Z,4.65
2022-10-28T07:12:19.274Z,4.80
2022-10-28T07:14:46.667Z,4.80
2022-10-28T07:17:14.055Z,5.40
2022-10-28T07:19:41.393Z,5.70
2022-10-28T07:22:08.742Z,4.90
2022-10-28T07:24:36.109Z,4.55
2022-10-28T07:27:03.502Z,4.63
2022-10-28T07:29:32.208Z,4.97
2022-10-28T07:31:59.579Z,5.03
2022-10-28T07:34:27.563Z,4.80
2022-10-28T07:36:55.645Z,5.28
2022-10-28T07:39:23.088Z,5.32
2022-10-28T07:41:50.480Z,4.00
2022-10-28T07:44:18.027Z,4.15
2022-10-28T07:46:46.739Z,4.55
2022-10-28T07:49:14.086Z,4.60
2022-10-28T07:51:41.840Z,4.85
2022-10-28T07:54:09.210Z,4.40
2022-10-28T07:56:37.748Z,4.47
2022-10-28T07:59:05.099Z,3.63
2022-10-28T08:01:32.571Z,4.60
2022-10-28T08:04:01.283Z,3.95
2022-10-28T08:06:28.798Z,5.18
2022-10-28T08:08:57.466Z,3.88
2022-10-28T08:11:24.860Z,4.53
2022-10-28T08:13:52.973Z,4.70
2022-10-28T08:16:20.361Z,3.80
2022-10-28T08:18:47.872Z,4.53
2022-10-28T08:21:16.705Z,4.93
2022-10-28T08:23:46.384Z,4.22
2022-10-28T08:26:14.678Z,4.57
2022-10-28T08:28:41.988Z,4.90
2022-10-28T08:31:10.109Z,4.82
2022-10-28T08:33:38.214Z,5.55
2022-10-28T08:36:06.020Z,4.55
2022-10-28T08:41:07.128Z,4.47
2022-10-28T08:43:56.090Z,4.95
2022-10-28T08:46:30.333Z,5.25
2022-10-28T08:48:57.740Z,4.47
2022-10-28T08:51:30.520Z,4.70
2022-10-28T08:53:59.497Z,5.07
2022-10-28T08:56:30.771Z,4.15
2022-10-28T08:59:00.251Z,5.30
2022-10-28T09:01:33.371Z,4.97
2022-10-28T09:04:03.070Z,4.50
2022-10-28T09:06:31.381Z,5.25
2022-10-28T09:08:59.032Z,4.63
2022-10-28T09:11:36.267Z,4.90
2022-10-28T09:14:10.550Z,5.78
2022-10-28T09:16:41.676Z,4.93
2022-10-28T09:19:14.960Z,5.13
2022-10-28T09:21:47.571Z,4.93
2022-10-28T09:24:18.317Z,4.93
2022-10-28T09:26:49.359Z,4.55
2022-10-28T09:29:30.927Z,4.32
2022-10-28T09:32:02.140Z,4.38
2022-10-28T09:34:35.704Z,3.92
2022-10-28T09:37:05.715Z,4.97
2022-10-28T09:39:36.521Z,3.95
2022-10-28T09:42:05.429Z,4.63
2022-10-28T09:44:36.962Z,5.30
2022-10-28T09:47:05.265Z,5.38
2022-10-28T09:49:35.514Z,3.83
2022-10-28T09:52:13.952Z,4.28
2022-10-28T09:54:45.402Z,4.55
2022-10-28T09:57:16.481Z,4.40
2022-10-28T09:59:44.925Z,4.45
2022-10-28T10:02:25.152Z,4.63
2022-10-28T10:04:53.166Z,4.40
2022-10-28T10:07:25.763Z,5.15
2022-10-28T10:09:53.154Z,4.88
2022-10-28T10:12:22.003Z,5.32
2022-10-28T10:14:50.843Z,3.65
2022-10-28T10:17:20.710Z,5.45
2022-10-28T10:20:01.487Z,4.97
2022-10-28T10:22:30.367Z,4.25
2022-10-28T10:24:58.119Z,3.97
2022-10-28T10:27:28.317Z,4.38
2022-10-28T10:29:56.306Z,3.95
2022-10-28T10:32:25.787Z,4.82
2022-10-28T10:34:56.624Z,3.92
2022-10-28T10:37:24.424Z,3.85
2022-10-28T10:42:25.386Z,4.22
2022-10-28T10:44:59.584Z,5.03
2022-10-28T10:47:27.537Z,4.00
2022-10-28T10:50:14.382Z,4.15
2022-10-28T10:52:48.686Z,4.07
2022-10-28T10:55:21.476Z,4.05
2022-10-28T10:57:49.359Z,5.07
2022-10-28T11:00:21.269Z,4.28
2022-10-28T11:02:52.205Z,3.95
2022-10-28T11:05:27.195Z,3.72
2022-10-28T11:08:04.793Z,4.43
2022-10-28T11:10:33.235Z,3.90
2022-10-28T11:13:02.371Z,4.72
2022-10-28T11:15:32.184Z,3.83
2022-10-28T11:18:00.691Z,4.47
2022-10-28T11:20:30.979Z,4.40
2022-10-28T11:23:06.438Z,4.43
2022-10-28T11:25:37.547Z,4.70
2022-10-28T11:28:12.182Z,4.55
2022-10-28T11:30:47.616Z,4.70
2022-10-28T11:33:30.023Z,4.65
2022-10-28T11:36:03.008Z,5.00
2022-10-28T11:38:38.461Z,3.92
2022-10-28T11:41:16.396Z,3.83
2022-10-28T11:43:52.170Z,4.38
2022-10-28T11:46:29.750Z,3.92
2022-10-28T11:49:04.390Z,3.97
2022-10-28T11:51:35.873Z,5.53
2022-10-28T11:54:15.459Z,4.28
2022-10-28T11:56:44.753Z,4.53
2022-10-28T11:59:25.156Z,5.63
2022-10-28T12:01:59.052Z,4.38
2022-10-28T12:04:33.905Z,4.68
2022-10-28T12:07:12.458Z,5.47
2022-10-28T12:09:48.623Z,4.07
2022-10-28T12:12:19.857Z,4.82
2022-10-28T12:14:52.979Z,4.15
2022-10-28T12:17:25.705Z,4.38
2022-10-28T12:19:55.386Z,3.60
2022-10-28T12:22:24.773Z,4.18
2022-10-28T12:24:53.041Z,4.85
2022-10-28T12:27:23.129Z,4.22
2022-10-28T12:29:52.076Z,4.53
2022-10-28T12:32:23.502Z,4.47
2022-10-28T12:34:54.186Z,4.78
2022-10-28T12:37:22.822Z,3.70
2022-10-28T12:39:54.602Z,4.43
2022-10-28T12:42:23.333Z,4.55
2022-10-28T12:44:53.808Z,4.15
2022-10-28T12:47:26.514Z,4.28
2022-10-28T12:50:01.314Z,4.05
2022-10-28T12:52:34.011Z,4.35
2022-10-28T12:55:04.463Z,4.30
2022-10-28T12:57:35.053Z,4.45
2022-10-28T13:00:04.855Z,4.30
2022-10-28T13:02:38.632Z,5.05
2022-10-28T13:05:06.733Z,4.35
2022-10-28T13:07:40.250Z,4.95
2022-10-28T13:10:13.604Z,3.75
2022-10-28T13:12:50.175Z,4.13
2022-10-28T13:15:35.465Z,4.18
2022-10-28T13:18:11.781Z,4.95
2022-10-28T13:20:42.948Z,4.10
2022-10-28T13:23:16.086Z,4.85
2022-10-28T13:26:06.292Z,4.60
2022-10-28T13:28:34.791Z,4.40
2022-10-28T13:31:03.549Z,4.10
2022-10-28T13:33:34.814Z,4.78
2022-10-28T13:36:16.415Z,5.65
2022-10-28T13:38:44.134Z,4.93
2022-10-28T13:41:26.138Z,5.20
2022-10-28T13:44:20.660Z,4.95
2022-10-28T13:47:01.535Z,4.65
2022-10-28T13:49:30.775Z,4.97
2022-10-28T13:52:02.410Z,4.30
2022-10-28T13:54:31.959Z,5.07
2022-10-28T13:57:03.878Z,5.18
2022-10-28T13:59:33.365Z,4.60
2022-10-28T14:02:32.552Z,4.57
2022-10-28T14:04:58.596Z,4.50
2022-10-28T14:07:27.936Z,5.55
2022-10-28T14:09:58.324Z,4.07
2022-10-28T14:12:27.959Z,4.70
2022-10-28T14:15:00.568Z,3.90
2022-10-28T14:17:29.834Z,5.18
2022-10-28T14:19:58.753Z,4.03
2022-10-28T14:22:30.303Z,4.72
2022-10-28T14:24:57.732Z,4.97
2022-10-28T14:27:29.940Z,5.15
2022-10-28T14:30:14.261Z,4.53
2022-10-28T14:32:43.645Z,4.60
2022-10-28T14:35:21.663Z,4.47
2022-10-28T14:38:09.483Z,4.53
2022-10-28T14:40:40.406Z,4.32
2022-10-28T14:43:13.123Z,4.70
2022-10-28T14:45:42.564Z,5.32
2022-10-28T14:48:30.957Z,4.63
2022-10-28T14:51:02.104Z,5.05
2022-10-28T14:53:31.160Z,4.80
2022-10-28T14:56:00.536Z,5.18
2022-10-28T14:58:29.704Z,4.13
2022-10-28T15:01:01.436Z,5.10
2022-10-28T15:03:29.027Z,5.15
2022-10-28T15:05:56.482Z,4.55
2022-10-28T15:08:26.206Z,5.28
2022-10-28T15:10:53.615Z,4.38
2022-10-28T15:13:22.126Z,5.07
2022-10-28T15:15:53.120Z,4.65
2022-10-28T15:18:24.238Z,4.53
2022-10-28T15:21:07.558Z,5.65
2022-10-28T15:23:36.279Z,5.03
2022-10-28T15:26:06.999Z,5.50
2022-10-28T15:28:34.548Z,5.25
2022-10-28T15:31:01.883Z,4.70
2022-10-28T15:33:30.252Z,4.60
2022-10-28T15:36:07.393Z,5.20
2022-10-28T15:38:38.975Z,5.13
2022-10-28T15:41:21.243Z,5.70
2022-10-28T15:43:54.230Z,4.72
2022-10-28T15:46:23.221Z,4.65
2022-10-28T15:48:52.742Z,4.93
2022-10-28T15:51:21.137Z,5.65
2022-10-28T15:53:53.801Z,4.47
2022-10-28T15:56:22.789Z,6.05
2022-10-28T15:59:01.192Z,6.03
2022-10-28T16:01:30.056Z,5.13
2022-10-28T16:03:58.026Z,5.20
2022-10-28T16:09:05.563Z,5.72
2022-10-28T16:11:35.657Z,5.25
2022-10-28T16:14:05.535Z,7.72
2022-10-28T16:16:33.527Z,5.57
2022-10-28T16:19:02.930Z,5.68
2022-10-28T16:21:31.239Z,5.28
2022-10-28T16:23:58.948Z,6.13
2022-10-28T16:26:27.762Z,5.15
2022-10-28T16:28:55.112Z,4.85
2022-10-28T16:31:23.617Z,4.93
2022-10-28T16:33:51.002Z,5.47
2022-10-28T16:36:18.428Z,5.45
2022-10-28T16:38:45.810Z,5.82
2022-10-28T16:41:15.118Z,4.85
2022-10-28T16:43:44.054Z,4.82
2022-10-28T16:46:12.058Z,5.93
2022-10-28T16:48:39.882Z,4.97
2022-10-28T16:53:35.136Z,6.38
2022-10-28T16:56:02.537Z,6.07
2022-10-28T16:58:30.046Z,5.20
2022-10-28T17:01:00.397Z,6.22
2022-10-28T17:03:27.773Z,4.97
2022-10-28T17:05:55.097Z,6.57
2022-10-28T17:08:36.461Z,4.65
2022-10-28T17:11:10.027Z,4.72
2022-10-28T17:13:37.390Z,5.72
2022-10-28T17:16:06.417Z,5.25
2022-10-28T17:18:33.743Z,4.82
2022-10-28T17:21:01.754Z,4.88
2022-10-28T17:23:29.239Z,5.75
2022-10-28T17:25:56.994Z,5.57
2022-10-28T17:28:24.357Z,4.85
2022-10-28T17:30:51.720Z,6.32
2022-10-28T17:33:20.496Z,5.70
2022-10-28T17:35:47.855Z,4.68
2022-10-28T17:38:15.202Z,4.53
2022-10-28T17:40:42.572Z,5.00
2022-10-28T17:43:09.928Z,6.03
2022-10-28T17:45:37.357Z,5.28
2022-10-28T17:48:04.942Z,5.18
2022-10-28T17:50:33.662Z,6.47
2022-10-28T17:53:00.995Z,4.78
2022-10-28T17:55:28.392Z,5.40
2022-10-28T17:57:56.200Z,4.95
2022-10-28T18:00:23.886Z,5.65
2022-10-28T18:02:51.313Z,5.40
2022-10-28T18:05:18.718Z,6.18
2022-10-28T18:07:47.472Z,5.75
2022-10-28T18:10:16.280Z,5.20
2022-10-28T18:12:43.642Z,5.43
2022-10-28T18:15:11.626Z,5.22
2022-10-28T18:17:38.983Z,6.28
2022-10-28T18:20:06.903Z,6.30
2022-10-28T18:22:34.245Z,6.05
2022-10-28T18:25:02.933Z,5.32
2022-10-28T18:27:30.433Z,6.07
2022-10-28T18:29:57.785Z,4.57
2022-10-28T18:32:25.113Z,6.13
2022-10-28T18:34:52.561Z,6.22
2022-10-28T18:37:20.001Z,5.45
2022-10-28T18:39:47.380Z,5.80
2022-10-28T18:42:19.385Z,4.95
2022-10-28T18:44:49.221Z,5.53
2022-10-28T18:47:16.619Z,4.85
2022-10-28T18:49:45.374Z,6.05
2022-10-28T18:52:12.752Z,4.97
2022-10-28T18:54:40.127Z,6.93
2022-10-28T18:57:07.479Z,5.25
2022-10-28T18:59:43.222Z,6.30
2022-10-28T19:02:20.051Z,5.53
2022-10-28T19:04:47.561Z,5.13
2022-10-28T19:07:14.918Z,6.63
2022-10-28T19:09:42.293Z,5.35
2022-10-28T19:12:09.830Z,5.43
2022-10-28T19:14:38.527Z,5.88
2022-10-28T19:17:05.877Z,5.53
2022-10-28T19:19:36.907Z,4.93
2022-10-28T19:22:08.261Z,5.30
2022-10-28T19:24:36.178Z,6.07
2022-10-28T19:27:04.673Z,5.47
2022-10-28T19:29:32.450Z,6.57
2022-10-28T19:36:57.320Z,5.68
2022-10-28T19:39:24.791Z,6.45
2022-10-28T19:41:52.544Z,6.25
2022-10-28T19:44:20.241Z,5.35
2022-10-28T19:46:48.106Z,5.28
2022-10-28T19:49:15.787Z,5.90
2022-10-28T19:51:43.416Z,6.07
2022-10-28T19:54:15.104Z,6.10
2022-10-28T19:56:45.386Z,4.95
2022-10-28T19:59:15.437Z,5.72
2022-10-28T20:01:43.457Z,5.78
2022-10-28T20:04:11.114Z,6.65
2022-10-28T20:06:39.491Z,6.05
2022-10-28T20:09:07.524Z,6.50
2022-10-28T20:11:37.584Z,5.95
2022-10-28T20:14:05.947Z,6.13
2022-10-28T20:16:33.620Z,6.20
2022-10-28T20:19:01.091Z,6.20
2022-10-28T20:21:29.324Z,5.88
2022-10-28T20:23:57.173Z,6.13
2022-10-28T20:28:53.123Z,6.00
2022-10-28T20:31:22.182Z,6.10
2022-10-28T20:33:51.158Z,6.38
2022-10-28T20:36:22.416Z,7.35
2022-10-28T20:38:53.172Z,6.05
2022-10-28T20:41:20.565Z,6.30
2022-10-28T20:43:49.964Z,5.70
2022-10-28T20:46:20.137Z,6.15
2022-10-28T20:48:48.053Z,6.43
2022-10-28T20:51:15.427Z,6.40
2022-10-28T20:53:42.991Z,5.97
2022-10-28T20:56:15.639Z,7.20
2022-10-28T20:58:44.760Z,6.85
2022-10-28T21:01:13.752Z,6.90
2022-10-28T21:03:43.092Z,6.68
2022-10-28T21:06:10.810Z,6.72
2022-10-28T21:08:38.324Z,8.35
2022-10-28T21:11:06.639Z,5.70
2022-10-28T21:13:34.346Z,6.50
2022-10-28T21:16:04.740Z,7.57
2022-10-28T21:18:32.123Z,8.43
2022-10-28T21:21:01.194Z,7.10
2022-10-28T21:23:29.067Z,7.28
2022-10-28T21:28:23.992Z,7.15
2022-10-28T21:30:51.465Z,6.63
2022-10-28T21:33:18.931Z,7.43
2022-10-28T21:35:54.918Z,7.25
2022-10-28T21:38:23.637Z,7.50
2022-10-28T21:40:58.730Z,7.53
2022-10-28T21:43:27.180Z,7.00
2022-10-28T21:45:54.629Z,6.47
2022-10-28T21:48:21.976Z,8.27
2022-10-28T21:50:52.866Z,7.05
2022-10-28T21:53:20.350Z,6.97
2022-10-28T21:55:50.012Z,8.02
2022-10-28T21:58:18.851Z,7.40
2022-10-28T22:00:46.520Z,6.90
2022-10-28T22:03:14.229Z,6.93
2022-10-28T22:05:49.639Z,6.97
2022-10-28T22:08:17.410Z,7.72
2022-10-28T22:10:44.795Z,7.28
2022-10-28T22:13:13.466Z,7.03
2022-10-28T22:15:40.791Z,6.47
2022-10-28T22:18:08.171Z,7.40
2022-10-28T22:20:35.558Z,6.80
2022-10-28T22:23:02.921Z,8.07
2022-10-28T22:25:30.289Z,7.95
2022-10-28T22:27:57.637Z,7.10
2022-10-28T22:30:26.318Z,6.75
2022-10-28T22:32:54.053Z,6.60
2022-10-28T22:37:48.844Z,6.70
2022-10-28T22:40:16.334Z,6.95
2022-10-28T22:42:43.694Z,6.22
2022-10-28T22:45:11.187Z,7.15
2022-10-28T22:47:39.889Z,6.60
2022-10-28T22:50:07.464Z,8.40
2022-10-28T22:52:34.836Z,6.35
2022-10-28T22:55:02.187Z,7.65
2022-10-28T22:57:29.536Z,7.60
2022-10-28T22:59:56.903Z,7.38
2022-10-28T23:02:24.316Z,7.97
2022-10-28T23:04:53.095Z,6.78
2022-10-28T23:07:20.423Z,7.82
2022-10-28T23:09:47.760Z,7.40
2022-10-28T23:12:15.094Z,7.05
2022-10-28T23:14:42.405Z,6.25
2022-10-28T23:17:09.721Z,7.80
2022-10-28T23:19:37.086Z,7.55
2022-10-28T23:22:05.785Z,7.68
2022-10-28T23:24:33.267Z,7.28
2022-10-28T23:27:00.619Z,7.05
2022-10-28T23:29:27.976Z,7.38
2022-10-28T23:31:55.316Z,7.10
2022-10-28T23:34:22.753Z,9.55
2022-10-28T23:36:53.946Z,7.07
2022-10-28T23:39:22.674Z,7.53
2022-10-28T23:41:50.018Z,6.97
2022-10-28T23:44:17.358Z,8.10
2022-10-28T23:46:44.719Z,7.95
2022-10-28T23:49:12.069Z,7.03
2022-10-28T23:51:39.446Z,7.40
2022-10-28T23:54:06.795Z,7.35
2022-10-28T23:56:35.516Z,7.18
2022-10-28T23:59:02.878Z,8.93
